<?xml version="1.0" encoding="UTF-8" standalone="no" ?>
<gpx xmlns="http://www.topografix.com/GPX/1/1" xmlns:xsi="http://www.w3.org/2001/XMLSchema-instance" xsi:schemaLocation="http://www.topografix.com/GPX/1/1 http://www.topografix.com/GPX/1/1/gpx.xsd" version="1.1" creator="VisuGPX - https://www.visugpx.com">
  <metadata>
    <name>VTT le 12 mai 2019</name>
    <desc><![CDATA[VTT le 12 mai 2019
]]></desc>
  </metadata>
  <trk>
    <name><![CDATA[Les Harmelins et les ruines du Trou]]></name>
    <trkseg>
      <trkpt lat="43.52201" lon="5.54693">
        <ele>254</ele>
        <time>2018-05-07T06:53:14Z</time>
      </trkpt>
      <trkpt lat="43.52223" lon="5.54699">
        <ele>255</ele>
        <time>2018-05-07T06:53:46Z</time>
      </trkpt>
      <trkpt lat="43.52245" lon="5.54708">
        <ele>257</ele>
        <time>2018-05-07T06:54:10Z</time>
      </trkpt>
      <trkpt lat="43.52267" lon="5.54719">
        <ele>258</ele>
        <time>2018-05-07T06:54:32Z</time>
      </trkpt>
      <trkpt lat="43.52285" lon="5.54738">
        <ele>259</ele>
        <time>2018-05-07T06:54:56Z</time>
      </trkpt>
      <trkpt lat="43.52299" lon="5.54764">
        <ele>260</ele>
        <time>2018-05-07T06:55:15Z</time>
      </trkpt>
      <trkpt lat="43.52309" lon="5.54794">
        <ele>263</ele>
        <time>2018-05-07T06:55:37Z</time>
      </trkpt>
      <trkpt lat="43.52331" lon="5.54792">
        <ele>262</ele>
        <time>2018-05-07T06:56:02Z</time>
      </trkpt>
      <trkpt lat="43.52352" lon="5.54776">
        <ele>261</ele>
        <time>2018-05-07T06:56:22Z</time>
      </trkpt>
      <trkpt lat="43.52372" lon="5.54764">
        <ele>260</ele>
        <time>2018-05-07T06:56:43Z</time>
      </trkpt>
      <trkpt lat="43.52395" lon="5.54755">
        <ele>260</ele>
        <time>2018-05-07T06:57:00Z</time>
      </trkpt>
      <trkpt lat="43.52416" lon="5.54742">
        <ele>261</ele>
        <time>2018-05-07T06:57:18Z</time>
      </trkpt>
      <trkpt lat="43.52437" lon="5.54727">
        <ele>262</ele>
        <time>2018-05-07T06:57:36Z</time>
      </trkpt>
      <trkpt lat="43.52458" lon="5.54715">
        <ele>262</ele>
        <time>2018-05-07T06:57:58Z</time>
      </trkpt>
      <trkpt lat="43.52477" lon="5.54696">
        <ele>262</ele>
        <time>2018-05-07T06:58:12Z</time>
      </trkpt>
      <trkpt lat="43.52491" lon="5.54671">
        <ele>261</ele>
        <time>2018-05-07T06:58:32Z</time>
      </trkpt>
      <trkpt lat="43.52505" lon="5.54645">
        <ele>262</ele>
        <time>2018-05-07T06:58:52Z</time>
      </trkpt>
      <trkpt lat="43.5252" lon="5.5462">
        <ele>264</ele>
        <time>2018-05-07T06:59:09Z</time>
      </trkpt>
      <trkpt lat="43.52533" lon="5.54594">
        <ele>267</ele>
        <time>2018-05-07T06:59:26Z</time>
      </trkpt>
      <trkpt lat="43.52542" lon="5.54565">
        <ele>270</ele>
        <time>2018-05-07T06:59:45Z</time>
      </trkpt>
      <trkpt lat="43.52551" lon="5.54535">
        <ele>272</ele>
        <time>2018-05-07T07:00:02Z</time>
      </trkpt>
      <trkpt lat="43.52573" lon="5.54543">
        <ele>273</ele>
        <time>2018-05-07T07:00:47Z</time>
      </trkpt>
      <trkpt lat="43.52588" lon="5.54568">
        <ele>272</ele>
        <time>2018-05-07T07:01:17Z</time>
      </trkpt>
      <trkpt lat="43.52602" lon="5.54593">
        <ele>274</ele>
        <time>2018-05-07T07:01:35Z</time>
      </trkpt>
      <trkpt lat="43.52618" lon="5.54617">
        <ele>275</ele>
        <time>2018-05-07T07:01:51Z</time>
      </trkpt>
      <trkpt lat="43.52632" lon="5.54642">
        <ele>275</ele>
        <time>2018-05-07T07:02:11Z</time>
      </trkpt>
      <trkpt lat="43.52646" lon="5.54667">
        <ele>273</ele>
        <time>2018-05-07T07:02:28Z</time>
      </trkpt>
      <trkpt lat="43.52659" lon="5.54692">
        <ele>273</ele>
        <time>2018-05-07T07:02:47Z</time>
      </trkpt>
      <trkpt lat="43.5267" lon="5.5472">
        <ele>271</ele>
        <time>2018-05-07T07:03:04Z</time>
      </trkpt>
      <trkpt lat="43.52681" lon="5.54749">
        <ele>269</ele>
        <time>2018-05-07T07:03:20Z</time>
      </trkpt>
      <trkpt lat="43.52702" lon="5.54764">
        <ele>271</ele>
        <time>2018-05-07T07:03:37Z</time>
      </trkpt>
      <trkpt lat="43.52723" lon="5.54781">
        <ele>272</ele>
        <time>2018-05-07T07:04:25Z</time>
      </trkpt>
      <trkpt lat="43.52731" lon="5.5481">
        <ele>273</ele>
        <time>2018-05-07T07:05:07Z</time>
      </trkpt>
      <trkpt lat="43.52731" lon="5.54842">
        <ele>273</ele>
        <time>2018-05-07T07:05:30Z</time>
      </trkpt>
      <trkpt lat="43.52727" lon="5.54873">
        <ele>275</ele>
        <time>2018-05-07T07:06:02Z</time>
      </trkpt>
      <trkpt lat="43.52726" lon="5.54905">
        <ele>278</ele>
        <time>2018-05-07T07:06:57Z</time>
      </trkpt>
      <trkpt lat="43.52731" lon="5.54937">
        <ele>281</ele>
        <time>2018-05-07T07:07:16Z</time>
      </trkpt>
      <trkpt lat="43.52737" lon="5.54967">
        <ele>283</ele>
        <time>2018-05-07T07:07:35Z</time>
      </trkpt>
      <trkpt lat="43.52748" lon="5.54996">
        <ele>286</ele>
        <time>2018-05-07T07:07:57Z</time>
      </trkpt>
      <trkpt lat="43.5276" lon="5.55023">
        <ele>288</ele>
        <time>2018-05-07T07:08:19Z</time>
      </trkpt>
      <trkpt lat="43.52769" lon="5.55052">
        <ele>291</ele>
        <time>2018-05-07T07:08:39Z</time>
      </trkpt>
      <trkpt lat="43.52774" lon="5.55083">
        <ele>293</ele>
        <time>2018-05-07T07:09:00Z</time>
      </trkpt>
      <trkpt lat="43.52782" lon="5.55113">
        <ele>299</ele>
        <time>2018-05-07T07:09:53Z</time>
      </trkpt>
      <trkpt lat="43.5279" lon="5.55144">
        <ele>304</ele>
        <time>2018-05-07T07:10:14Z</time>
      </trkpt>
      <trkpt lat="43.52798" lon="5.55174">
        <ele>308</ele>
        <time>2018-05-07T07:10:36Z</time>
      </trkpt>
      <trkpt lat="43.52804" lon="5.55205">
        <ele>312</ele>
        <time>2018-05-07T07:10:58Z</time>
      </trkpt>
      <trkpt lat="43.52806" lon="5.55236">
        <ele>315</ele>
        <time>2018-05-07T07:11:19Z</time>
      </trkpt>
      <trkpt lat="43.52811" lon="5.55267">
        <ele>318</ele>
        <time>2018-05-07T07:11:42Z</time>
      </trkpt>
      <trkpt lat="43.52825" lon="5.55293">
        <ele>320</ele>
        <time>2018-05-07T07:12:03Z</time>
      </trkpt>
      <trkpt lat="43.52837" lon="5.5532">
        <ele>321</ele>
        <time>2018-05-07T07:12:29Z</time>
      </trkpt>
      <trkpt lat="43.5285" lon="5.55346">
        <ele>323</ele>
        <time>2018-05-07T07:12:54Z</time>
      </trkpt>
      <trkpt lat="43.52854" lon="5.55377">
        <ele>325</ele>
        <time>2018-05-07T07:13:17Z</time>
      </trkpt>
      <trkpt lat="43.52861" lon="5.55407">
        <ele>328</ele>
        <time>2018-05-07T07:13:37Z</time>
      </trkpt>
      <trkpt lat="43.52866" lon="5.55439">
        <ele>332</ele>
        <time>2018-05-07T07:13:56Z</time>
      </trkpt>
      <trkpt lat="43.52867" lon="5.55471">
        <ele>336</ele>
        <time>2018-05-07T07:14:15Z</time>
      </trkpt>
      <trkpt lat="43.52871" lon="5.55503">
        <ele>340</ele>
        <time>2018-05-07T07:14:34Z</time>
      </trkpt>
      <trkpt lat="43.52866" lon="5.55533">
        <ele>341</ele>
        <time>2018-05-07T07:14:50Z</time>
      </trkpt>
      <trkpt lat="43.52864" lon="5.55565">
        <ele>343</ele>
        <time>2018-05-07T07:15:09Z</time>
      </trkpt>
      <trkpt lat="43.52861" lon="5.55597">
        <ele>344</ele>
        <time>2018-05-07T07:15:26Z</time>
      </trkpt>
      <trkpt lat="43.52868" lon="5.55627">
        <ele>345</ele>
        <time>2018-05-07T07:15:46Z</time>
      </trkpt>
      <trkpt lat="43.52872" lon="5.55658">
        <ele>346</ele>
        <time>2018-05-07T07:16:36Z</time>
      </trkpt>
      <trkpt lat="43.52879" lon="5.55688">
        <ele>348</ele>
        <time>2018-05-07T07:16:58Z</time>
      </trkpt>
      <trkpt lat="43.52883" lon="5.55719">
        <ele>350</ele>
        <time>2018-05-07T07:17:20Z</time>
      </trkpt>
      <trkpt lat="43.52888" lon="5.55749">
        <ele>351</ele>
        <time>2018-05-07T07:17:40Z</time>
      </trkpt>
      <trkpt lat="43.52892" lon="5.5578">
        <ele>353</ele>
        <time>2018-05-07T07:17:59Z</time>
      </trkpt>
      <trkpt lat="43.52897" lon="5.55811">
        <ele>355</ele>
        <time>2018-05-07T07:18:18Z</time>
      </trkpt>
      <trkpt lat="43.52901" lon="5.55842">
        <ele>357</ele>
        <time>2018-05-07T07:18:36Z</time>
      </trkpt>
      <trkpt lat="43.52902" lon="5.55874">
        <ele>358</ele>
        <time>2018-05-07T07:18:55Z</time>
      </trkpt>
      <trkpt lat="43.52904" lon="5.55905">
        <ele>360</ele>
        <time>2018-05-07T07:19:15Z</time>
      </trkpt>
      <trkpt lat="43.52913" lon="5.55934">
        <ele>360</ele>
        <time>2018-05-07T07:19:33Z</time>
      </trkpt>
      <trkpt lat="43.52923" lon="5.55963">
        <ele>359</ele>
        <time>2018-05-07T07:19:52Z</time>
      </trkpt>
      <trkpt lat="43.52929" lon="5.55994">
        <ele>359</ele>
        <time>2018-05-07T07:20:09Z</time>
      </trkpt>
      <trkpt lat="43.52953" lon="5.55999">
        <ele>355</ele>
        <time>2018-05-07T07:21:18Z</time>
      </trkpt>
      <trkpt lat="43.52936" lon="5.56021">
        <ele>360</ele>
        <time>2018-05-07T07:29:48Z</time>
      </trkpt>
      <trkpt lat="43.52915" lon="5.56031">
        <ele>364</ele>
        <time>2018-05-07T07:30:38Z</time>
      </trkpt>
      <trkpt lat="43.52895" lon="5.56017">
        <ele>366</ele>
        <time>2018-05-07T07:31:17Z</time>
      </trkpt>
      <trkpt lat="43.52881" lon="5.55991">
        <ele>365</ele>
        <time>2018-05-07T07:31:40Z</time>
      </trkpt>
      <trkpt lat="43.52866" lon="5.55966">
        <ele>366</ele>
        <time>2018-05-07T07:31:59Z</time>
      </trkpt>
      <trkpt lat="43.52856" lon="5.55938">
        <ele>364</ele>
        <time>2018-05-07T07:32:17Z</time>
      </trkpt>
      <trkpt lat="43.52842" lon="5.55912">
        <ele>363</ele>
        <time>2018-05-07T07:32:32Z</time>
      </trkpt>
      <trkpt lat="43.52832" lon="5.55885">
        <ele>361</ele>
        <time>2018-05-07T07:32:47Z</time>
      </trkpt>
      <trkpt lat="43.52821" lon="5.55857">
        <ele>358</ele>
        <time>2018-05-07T07:33:14Z</time>
      </trkpt>
      <trkpt lat="43.52814" lon="5.55826">
        <ele>356</ele>
        <time>2018-05-07T07:33:33Z</time>
      </trkpt>
      <trkpt lat="43.52804" lon="5.55797">
        <ele>354</ele>
        <time>2018-05-07T07:33:50Z</time>
      </trkpt>
      <trkpt lat="43.52798" lon="5.55767">
        <ele>351</ele>
        <time>2018-05-07T07:34:07Z</time>
      </trkpt>
      <trkpt lat="43.5279" lon="5.55736">
        <ele>351</ele>
        <time>2018-05-07T07:34:24Z</time>
      </trkpt>
      <trkpt lat="43.52777" lon="5.55741">
        <ele>351</ele>
        <time>2018-05-07T07:36:10Z</time>
      </trkpt>
      <trkpt lat="43.52781" lon="5.55772">
        <ele>352</ele>
        <time>2018-05-07T07:38:09Z</time>
      </trkpt>
      <trkpt lat="43.52786" lon="5.55803">
        <ele>354</ele>
        <time>2018-05-07T07:38:53Z</time>
      </trkpt>
      <trkpt lat="43.52793" lon="5.55833">
        <ele>356</ele>
        <time>2018-05-07T07:39:39Z</time>
      </trkpt>
      <trkpt lat="43.52794" lon="5.55864">
        <ele>358</ele>
        <time>2018-05-07T07:40:01Z</time>
      </trkpt>
      <trkpt lat="43.52798" lon="5.55896">
        <ele>359</ele>
        <time>2018-05-07T07:40:22Z</time>
      </trkpt>
      <trkpt lat="43.52801" lon="5.55928">
        <ele>362</ele>
        <time>2018-05-07T07:40:44Z</time>
      </trkpt>
      <trkpt lat="43.52804" lon="5.55959">
        <ele>364</ele>
        <time>2018-05-07T07:41:06Z</time>
      </trkpt>
      <trkpt lat="43.52806" lon="5.55992">
        <ele>367</ele>
        <time>2018-05-07T07:41:31Z</time>
      </trkpt>
      <trkpt lat="43.5281" lon="5.56023">
        <ele>370</ele>
        <time>2018-05-07T07:42:12Z</time>
      </trkpt>
      <trkpt lat="43.52816" lon="5.56053">
        <ele>374</ele>
        <time>2018-05-07T07:42:36Z</time>
      </trkpt>
      <trkpt lat="43.52818" lon="5.56085">
        <ele>377</ele>
        <time>2018-05-07T07:43:26Z</time>
      </trkpt>
      <trkpt lat="43.52824" lon="5.56117">
        <ele>383</ele>
        <time>2018-05-07T07:43:47Z</time>
      </trkpt>
      <trkpt lat="43.52833" lon="5.56145">
        <ele>390</ele>
        <time>2018-05-07T07:44:12Z</time>
      </trkpt>
      <trkpt lat="43.5284" lon="5.56176">
        <ele>393</ele>
        <time>2018-05-07T07:44:37Z</time>
      </trkpt>
      <trkpt lat="43.52854" lon="5.56201">
        <ele>393</ele>
        <time>2018-05-07T07:45:07Z</time>
      </trkpt>
      <trkpt lat="43.52863" lon="5.5623">
        <ele>394</ele>
        <time>2018-05-07T07:45:40Z</time>
      </trkpt>
      <trkpt lat="43.52864" lon="5.56262">
        <ele>396</ele>
        <time>2018-05-07T07:46:02Z</time>
      </trkpt>
      <trkpt lat="43.5286" lon="5.56294">
        <ele>398</ele>
        <time>2018-05-07T07:46:25Z</time>
      </trkpt>
      <trkpt lat="43.52863" lon="5.56325">
        <ele>400</ele>
        <time>2018-05-07T07:46:44Z</time>
      </trkpt>
      <trkpt lat="43.52869" lon="5.56357">
        <ele>402</ele>
        <time>2018-05-07T07:47:03Z</time>
      </trkpt>
      <trkpt lat="43.52873" lon="5.56389">
        <ele>404</ele>
        <time>2018-05-07T07:47:23Z</time>
      </trkpt>
      <trkpt lat="43.52878" lon="5.56419">
        <ele>406</ele>
        <time>2018-05-07T07:47:42Z</time>
      </trkpt>
      <trkpt lat="43.52888" lon="5.56447">
        <ele>409</ele>
        <time>2018-05-07T07:48:22Z</time>
      </trkpt>
      <trkpt lat="43.52895" lon="5.56476">
        <ele>412</ele>
        <time>2018-05-07T07:48:42Z</time>
      </trkpt>
      <trkpt lat="43.52906" lon="5.56505">
        <ele>417</ele>
        <time>2018-05-07T07:49:01Z</time>
      </trkpt>
      <trkpt lat="43.52918" lon="5.56532">
        <ele>422</ele>
        <time>2018-05-07T07:49:22Z</time>
      </trkpt>
      <trkpt lat="43.52917" lon="5.56564">
        <ele>425</ele>
        <time>2018-05-07T07:49:44Z</time>
      </trkpt>
      <trkpt lat="43.5291" lon="5.56594">
        <ele>426</ele>
        <time>2018-05-07T07:50:01Z</time>
      </trkpt>
      <trkpt lat="43.52903" lon="5.56625">
        <ele>426</ele>
        <time>2018-05-07T07:50:17Z</time>
      </trkpt>
      <trkpt lat="43.52895" lon="5.56654">
        <ele>427</ele>
        <time>2018-05-07T07:50:34Z</time>
      </trkpt>
      <trkpt lat="43.52892" lon="5.56685">
        <ele>428</ele>
        <time>2018-05-07T07:50:58Z</time>
      </trkpt>
      <trkpt lat="43.52893" lon="5.56717">
        <ele>429</ele>
        <time>2018-05-07T07:51:22Z</time>
      </trkpt>
      <trkpt lat="43.52894" lon="5.56749">
        <ele>430</ele>
        <time>2018-05-07T07:51:41Z</time>
      </trkpt>
      <trkpt lat="43.52894" lon="5.5678">
        <ele>431</ele>
        <time>2018-05-07T07:51:58Z</time>
      </trkpt>
      <trkpt lat="43.52886" lon="5.5681">
        <ele>431</ele>
        <time>2018-05-07T07:52:18Z</time>
      </trkpt>
      <trkpt lat="43.52879" lon="5.56841">
        <ele>431</ele>
        <time>2018-05-07T07:52:36Z</time>
      </trkpt>
      <trkpt lat="43.52881" lon="5.56873">
        <ele>433</ele>
        <time>2018-05-07T07:52:54Z</time>
      </trkpt>
      <trkpt lat="43.52883" lon="5.56905">
        <ele>435</ele>
        <time>2018-05-07T07:53:16Z</time>
      </trkpt>
      <trkpt lat="43.52886" lon="5.56936">
        <ele>439</ele>
        <time>2018-05-07T07:53:54Z</time>
      </trkpt>
      <trkpt lat="43.52882" lon="5.56967">
        <ele>443</ele>
        <time>2018-05-07T07:54:27Z</time>
      </trkpt>
      <trkpt lat="43.5286" lon="5.5698">
        <ele>444</ele>
        <time>2018-05-07T07:59:39Z</time>
      </trkpt>
      <trkpt lat="43.52863" lon="5.57011">
        <ele>448</ele>
        <time>2018-05-07T08:02:19Z</time>
      </trkpt>
      <trkpt lat="43.52877" lon="5.57035">
        <ele>450</ele>
        <time>2018-05-07T08:09:35Z</time>
      </trkpt>
      <trkpt lat="43.52886" lon="5.57064">
        <ele>453</ele>
        <time>2018-05-07T08:10:42Z</time>
      </trkpt>
      <trkpt lat="43.52877" lon="5.57093">
        <ele>454</ele>
        <time>2018-05-07T08:11:04Z</time>
      </trkpt>
      <trkpt lat="43.52865" lon="5.5712">
        <ele>453</ele>
        <time>2018-05-07T08:11:30Z</time>
      </trkpt>
      <trkpt lat="43.52855" lon="5.57148">
        <ele>452</ele>
        <time>2018-05-07T08:11:52Z</time>
      </trkpt>
      <trkpt lat="43.52838" lon="5.5717">
        <ele>448</ele>
        <time>2018-05-07T08:12:09Z</time>
      </trkpt>
      <trkpt lat="43.52821" lon="5.57192">
        <ele>445</ele>
        <time>2018-05-07T08:12:25Z</time>
      </trkpt>
      <trkpt lat="43.52805" lon="5.57214">
        <ele>442</ele>
        <time>2018-05-07T08:12:44Z</time>
      </trkpt>
      <trkpt lat="43.52793" lon="5.5724">
        <ele>441</ele>
        <time>2018-05-07T08:14:22Z</time>
      </trkpt>
      <trkpt lat="43.52785" lon="5.5727">
        <ele>440</ele>
        <time>2018-05-07T08:14:51Z</time>
      </trkpt>
      <trkpt lat="43.52767" lon="5.57291">
        <ele>436</ele>
        <time>2018-05-07T08:17:00Z</time>
      </trkpt>
      <trkpt lat="43.52753" lon="5.57267">
        <ele>431</ele>
        <time>2018-05-07T08:17:32Z</time>
      </trkpt>
      <trkpt lat="43.52739" lon="5.57242">
        <ele>425</ele>
        <time>2018-05-07T08:17:57Z</time>
      </trkpt>
      <trkpt lat="43.52738" lon="5.57211">
        <ele>422</ele>
        <time>2018-05-07T08:18:16Z</time>
      </trkpt>
      <trkpt lat="43.52736" lon="5.5718">
        <ele>419</ele>
        <time>2018-05-07T08:18:35Z</time>
      </trkpt>
      <trkpt lat="43.52727" lon="5.5715">
        <ele>416</ele>
        <time>2018-05-07T08:18:54Z</time>
      </trkpt>
      <trkpt lat="43.52729" lon="5.57118">
        <ele>416</ele>
        <time>2018-05-07T08:19:12Z</time>
      </trkpt>
      <trkpt lat="43.52729" lon="5.57087">
        <ele>416</ele>
        <time>2018-05-07T08:19:30Z</time>
      </trkpt>
      <trkpt lat="43.52716" lon="5.57061">
        <ele>413</ele>
        <time>2018-05-07T08:19:47Z</time>
      </trkpt>
      <trkpt lat="43.52701" lon="5.57037">
        <ele>411</ele>
        <time>2018-05-07T08:20:13Z</time>
      </trkpt>
      <trkpt lat="43.52694" lon="5.57007">
        <ele>410</ele>
        <time>2018-05-07T08:21:29Z</time>
      </trkpt>
      <trkpt lat="43.52686" lon="5.56977">
        <ele>407</ele>
        <time>2018-05-07T08:22:24Z</time>
      </trkpt>
      <trkpt lat="43.52693" lon="5.56947">
        <ele>406</ele>
        <time>2018-05-07T08:22:58Z</time>
      </trkpt>
      <trkpt lat="43.52704" lon="5.5692">
        <ele>407</ele>
        <time>2018-05-07T08:23:17Z</time>
      </trkpt>
      <trkpt lat="43.52705" lon="5.56888">
        <ele>405</ele>
        <time>2018-05-07T08:23:34Z</time>
      </trkpt>
      <trkpt lat="43.52693" lon="5.56862">
        <ele>400</ele>
        <time>2018-05-07T08:25:24Z</time>
      </trkpt>
      <trkpt lat="43.52671" lon="5.56848">
        <ele>396</ele>
        <time>2018-05-07T08:25:41Z</time>
      </trkpt>
      <trkpt lat="43.52653" lon="5.56827">
        <ele>389</ele>
        <time>2018-05-07T08:26:00Z</time>
      </trkpt>
      <trkpt lat="43.5266" lon="5.56797">
        <ele>388</ele>
        <time>2018-05-07T08:26:25Z</time>
      </trkpt>
      <trkpt lat="43.52648" lon="5.56769">
        <ele>381</ele>
        <time>2018-05-07T08:26:55Z</time>
      </trkpt>
      <trkpt lat="43.52626" lon="5.56772">
        <ele>375</ele>
        <time>2018-05-07T08:27:19Z</time>
      </trkpt>
      <trkpt lat="43.52606" lon="5.56788">
        <ele>371</ele>
        <time>2018-05-07T08:27:38Z</time>
      </trkpt>
      <trkpt lat="43.52596" lon="5.56758">
        <ele>365</ele>
        <time>2018-05-07T08:28:09Z</time>
      </trkpt>
      <trkpt lat="43.52594" lon="5.56727">
        <ele>363</ele>
        <time>2018-05-07T08:28:29Z</time>
      </trkpt>
      <trkpt lat="43.5259" lon="5.56695">
        <ele>360</ele>
        <time>2018-05-07T08:30:35Z</time>
      </trkpt>
      <trkpt lat="43.52589" lon="5.56663">
        <ele>358</ele>
        <time>2018-05-07T08:30:54Z</time>
      </trkpt>
      <trkpt lat="43.52575" lon="5.56637">
        <ele>355</ele>
        <time>2018-05-07T08:31:13Z</time>
      </trkpt>
      <trkpt lat="43.5256" lon="5.56613">
        <ele>352</ele>
        <time>2018-05-07T08:33:08Z</time>
      </trkpt>
      <trkpt lat="43.52562" lon="5.56581">
        <ele>352</ele>
        <time>2018-05-07T08:33:26Z</time>
      </trkpt>
      <trkpt lat="43.52564" lon="5.56548">
        <ele>351</ele>
        <time>2018-05-07T08:33:44Z</time>
      </trkpt>
      <trkpt lat="43.52569" lon="5.56518">
        <ele>351</ele>
        <time>2018-05-07T08:34:02Z</time>
      </trkpt>
      <trkpt lat="43.52579" lon="5.56489">
        <ele>351</ele>
        <time>2018-05-07T08:34:20Z</time>
      </trkpt>
      <trkpt lat="43.52583" lon="5.56457">
        <ele>350</ele>
        <time>2018-05-07T08:34:39Z</time>
      </trkpt>
      <trkpt lat="43.52602" lon="5.56437">
        <ele>351</ele>
        <time>2018-05-07T08:34:55Z</time>
      </trkpt>
      <trkpt lat="43.52621" lon="5.5642">
        <ele>352</ele>
        <time>2018-05-07T08:35:11Z</time>
      </trkpt>
      <trkpt lat="43.52643" lon="5.56429">
        <ele>356</ele>
        <time>2018-05-07T08:35:32Z</time>
      </trkpt>
      <trkpt lat="43.52654" lon="5.56401">
        <ele>355</ele>
        <time>2018-05-07T08:35:58Z</time>
      </trkpt>
      <trkpt lat="43.52647" lon="5.56371">
        <ele>352</ele>
        <time>2018-05-07T08:37:37Z</time>
      </trkpt>
      <trkpt lat="43.52641" lon="5.5634">
        <ele>348</ele>
        <time>2018-05-07T08:37:58Z</time>
      </trkpt>
      <trkpt lat="43.52641" lon="5.56309">
        <ele>346</ele>
        <time>2018-05-07T08:38:58Z</time>
      </trkpt>
      <trkpt lat="43.52639" lon="5.56277">
        <ele>343</ele>
        <time>2018-05-07T08:39:40Z</time>
      </trkpt>
      <trkpt lat="43.52637" lon="5.56246">
        <ele>341</ele>
        <time>2018-05-07T08:40:01Z</time>
      </trkpt>
      <trkpt lat="43.52637" lon="5.56214">
        <ele>339</ele>
        <time>2018-05-07T08:40:22Z</time>
      </trkpt>
      <trkpt lat="43.52638" lon="5.56182">
        <ele>337</ele>
        <time>2018-05-07T08:40:43Z</time>
      </trkpt>
      <trkpt lat="43.5264" lon="5.5615">
        <ele>334</ele>
        <time>2018-05-07T08:41:04Z</time>
      </trkpt>
      <trkpt lat="43.52637" lon="5.5612">
        <ele>332</ele>
        <time>2018-05-07T08:41:23Z</time>
      </trkpt>
      <trkpt lat="43.52635" lon="5.56087">
        <ele>329</ele>
        <time>2018-05-07T08:41:42Z</time>
      </trkpt>
      <trkpt lat="43.52628" lon="5.56058">
        <ele>329</ele>
        <time>2018-05-07T08:42:00Z</time>
      </trkpt>
      <trkpt lat="43.52615" lon="5.56032">
        <ele>328</ele>
        <time>2018-05-07T08:42:18Z</time>
      </trkpt>
      <trkpt lat="43.52618" lon="5.56">
        <ele>328</ele>
        <time>2018-05-07T08:42:37Z</time>
      </trkpt>
      <trkpt lat="43.52636" lon="5.55982">
        <ele>329</ele>
        <time>2018-05-07T08:42:55Z</time>
      </trkpt>
      <trkpt lat="43.52656" lon="5.55965">
        <ele>331</ele>
        <time>2018-05-07T08:43:16Z</time>
      </trkpt>
      <trkpt lat="43.5265" lon="5.55935">
        <ele>329</ele>
        <time>2018-05-07T08:43:35Z</time>
      </trkpt>
      <trkpt lat="43.52643" lon="5.55903">
        <ele>327</ele>
        <time>2018-05-07T08:43:54Z</time>
      </trkpt>
      <trkpt lat="43.52638" lon="5.55873">
        <ele>326</ele>
        <time>2018-05-07T08:46:35Z</time>
      </trkpt>
      <trkpt lat="43.52627" lon="5.55845">
        <ele>323</ele>
        <time>2018-05-07T08:46:58Z</time>
      </trkpt>
      <trkpt lat="43.52613" lon="5.55819">
        <ele>322</ele>
        <time>2018-05-07T08:47:17Z</time>
      </trkpt>
      <trkpt lat="43.52596" lon="5.55796">
        <ele>320</ele>
        <time>2018-05-07T08:47:52Z</time>
      </trkpt>
      <trkpt lat="43.52575" lon="5.55782">
        <ele>319</ele>
        <time>2018-05-07T08:48:06Z</time>
      </trkpt>
      <trkpt lat="43.52562" lon="5.55756">
        <ele>319</ele>
        <time>2018-05-07T08:48:24Z</time>
      </trkpt>
      <trkpt lat="43.52551" lon="5.55729">
        <ele>319</ele>
        <time>2018-05-07T08:48:42Z</time>
      </trkpt>
      <trkpt lat="43.52545" lon="5.557">
        <ele>318</ele>
        <time>2018-05-07T08:48:59Z</time>
      </trkpt>
      <trkpt lat="43.52531" lon="5.55673">
        <ele>315</ele>
        <time>2018-05-07T08:49:20Z</time>
      </trkpt>
      <trkpt lat="43.52516" lon="5.5565">
        <ele>311</ele>
        <time>2018-05-07T08:51:37Z</time>
      </trkpt>
      <trkpt lat="43.525" lon="5.55627">
        <ele>307</ele>
        <time>2018-05-07T08:51:58Z</time>
      </trkpt>
      <trkpt lat="43.52491" lon="5.55597">
        <ele>304</ele>
        <time>2018-05-07T08:52:18Z</time>
      </trkpt>
      <trkpt lat="43.52476" lon="5.55574">
        <ele>302</ele>
        <time>2018-05-07T08:53:56Z</time>
      </trkpt>
      <trkpt lat="43.52464" lon="5.55547">
        <ele>302</ele>
        <time>2018-05-07T08:54:18Z</time>
      </trkpt>
      <trkpt lat="43.5246" lon="5.55516">
        <ele>303</ele>
        <time>2018-05-07T08:54:34Z</time>
      </trkpt>
      <trkpt lat="43.5246" lon="5.55484">
        <ele>304</ele>
        <time>2018-05-07T08:54:59Z</time>
      </trkpt>
      <trkpt lat="43.52457" lon="5.55452">
        <ele>304</ele>
        <time>2018-05-07T08:55:18Z</time>
      </trkpt>
      <trkpt lat="43.52453" lon="5.55421">
        <ele>303</ele>
        <time>2018-05-07T08:55:37Z</time>
      </trkpt>
      <trkpt lat="43.52434" lon="5.55403">
        <ele>299</ele>
        <time>2018-05-07T08:55:55Z</time>
      </trkpt>
      <trkpt lat="43.52416" lon="5.55382">
        <ele>294</ele>
        <time>2018-05-07T08:56:16Z</time>
      </trkpt>
      <trkpt lat="43.52397" lon="5.55364">
        <ele>291</ele>
        <time>2018-05-07T08:56:35Z</time>
      </trkpt>
      <trkpt lat="43.52379" lon="5.55343">
        <ele>289</ele>
        <time>2018-05-07T08:56:53Z</time>
      </trkpt>
      <trkpt lat="43.52365" lon="5.55317">
        <ele>287</ele>
        <time>2018-05-07T08:57:30Z</time>
      </trkpt>
      <trkpt lat="43.52354" lon="5.55289">
        <ele>285</ele>
        <time>2018-05-07T08:58:48Z</time>
      </trkpt>
      <trkpt lat="43.52362" lon="5.55259">
        <ele>284</ele>
        <time>2018-05-07T08:59:06Z</time>
      </trkpt>
      <trkpt lat="43.52358" lon="5.55227">
        <ele>282</ele>
        <time>2018-05-07T08:59:29Z</time>
      </trkpt>
      <trkpt lat="43.5234" lon="5.55205">
        <ele>278</ele>
        <time>2018-05-07T08:59:52Z</time>
      </trkpt>
      <trkpt lat="43.52318" lon="5.55198">
        <ele>274</ele>
        <time>2018-05-07T09:00:12Z</time>
      </trkpt>
      <trkpt lat="43.52295" lon="5.55199">
        <ele>272</ele>
        <time>2018-05-07T09:00:32Z</time>
      </trkpt>
      <trkpt lat="43.52273" lon="5.55191">
        <ele>269</ele>
        <time>2018-05-07T09:00:49Z</time>
      </trkpt>
      <trkpt lat="43.52281" lon="5.55161">
        <ele>269</ele>
        <time>2018-05-07T09:02:45Z</time>
      </trkpt>
      <trkpt lat="43.52303" lon="5.55152">
        <ele>271</ele>
        <time>2018-05-07T09:03:01Z</time>
      </trkpt>
      <trkpt lat="43.52323" lon="5.55136">
        <ele>274</ele>
        <time>2018-05-07T09:03:19Z</time>
      </trkpt>
      <trkpt lat="43.52344" lon="5.55123">
        <ele>278</ele>
        <time>2018-05-07T09:03:40Z</time>
      </trkpt>
      <trkpt lat="43.52364" lon="5.55107">
        <ele>283</ele>
        <time>2018-05-07T09:04:05Z</time>
      </trkpt>
      <trkpt lat="43.52374" lon="5.55078">
        <ele>288</ele>
        <time>2018-05-07T09:05:10Z</time>
      </trkpt>
      <trkpt lat="43.52381" lon="5.55049">
        <ele>290</ele>
        <time>2018-05-07T09:05:31Z</time>
      </trkpt>
      <trkpt lat="43.52379" lon="5.55016">
        <ele>292</ele>
        <time>2018-05-07T09:05:51Z</time>
      </trkpt>
      <trkpt lat="43.52385" lon="5.54986">
        <ele>292</ele>
        <time>2018-05-07T09:06:43Z</time>
      </trkpt>
      <trkpt lat="43.52362" lon="5.54978">
        <ele>289</ele>
        <time>2018-05-07T09:08:19Z</time>
      </trkpt>
      <trkpt lat="43.52341" lon="5.54968">
        <ele>286</ele>
        <time>2018-05-07T09:08:43Z</time>
      </trkpt>
      <trkpt lat="43.52319" lon="5.54977">
        <ele>283</ele>
        <time>2018-05-07T09:09:07Z</time>
      </trkpt>
      <trkpt lat="43.52341" lon="5.54967">
        <ele>286</ele>
        <time>2018-05-07T09:11:45Z</time>
      </trkpt>
      <trkpt lat="43.52362" lon="5.54978">
        <ele>289</ele>
        <time>2018-05-07T09:13:19Z</time>
      </trkpt>
      <trkpt lat="43.52354" lon="5.54948">
        <ele>286</ele>
        <time>2018-05-07T09:14:07Z</time>
      </trkpt>
      <trkpt lat="43.52345" lon="5.5492">
        <ele>283</ele>
        <time>2018-05-07T09:14:24Z</time>
      </trkpt>
      <trkpt lat="43.52339" lon="5.5489">
        <ele>278</ele>
        <time>2018-05-07T09:14:43Z</time>
      </trkpt>
      <trkpt lat="43.52317" lon="5.54878">
        <ele>274</ele>
        <time>2018-05-07T09:15:02Z</time>
      </trkpt>
      <trkpt lat="43.52294" lon="5.54867">
        <ele>270</ele>
        <time>2018-05-07T09:15:21Z</time>
      </trkpt>
      <trkpt lat="43.5228" lon="5.54841">
        <ele>267</ele>
        <time>2018-05-07T09:15:40Z</time>
      </trkpt>
      <trkpt lat="43.52266" lon="5.54815">
        <ele>265</ele>
        <time>2018-05-07T09:15:57Z</time>
      </trkpt>
      <trkpt lat="43.52253" lon="5.5479">
        <ele>264</ele>
        <time>2018-05-07T09:16:12Z</time>
      </trkpt>
      <trkpt lat="43.52239" lon="5.54766">
        <ele>262</ele>
        <time>2018-05-07T09:16:30Z</time>
      </trkpt>
      <trkpt lat="43.52217" lon="5.54756">
        <ele>261</ele>
        <time>2018-05-07T09:16:45Z</time>
      </trkpt>
      <trkpt lat="43.52194" lon="5.54762">
        <ele>261</ele>
        <time>2018-05-07T09:17:03Z</time>
      </trkpt>
      <trkpt lat="43.52172" lon="5.54775">
        <ele>260</ele>
        <time>2018-05-07T09:17:20Z</time>
      </trkpt>
      <trkpt lat="43.52179" lon="5.54805">
        <ele>260</ele>
        <time>2018-05-07T09:17:36Z</time>
      </trkpt>
      <trkpt lat="43.52155" lon="5.54802">
        <ele>257</ele>
        <time>2018-05-07T09:17:58Z</time>
      </trkpt>
      <trkpt lat="43.52142" lon="5.54776">
        <ele>256</ele>
        <time>2018-05-07T09:18:16Z</time>
      </trkpt>
      <trkpt lat="43.5213" lon="5.54747">
        <ele>254</ele>
        <time>2018-05-07T09:18:32Z</time>
      </trkpt>
      <trkpt lat="43.52129" lon="5.54715">
        <ele>252</ele>
        <time>2018-05-07T09:18:50Z</time>
      </trkpt>
      <trkpt lat="43.52134" lon="5.54683">
        <ele>249</ele>
        <time>2018-05-07T09:19:07Z</time>
      </trkpt>
      <trkpt lat="43.52156" lon="5.54675">
        <ele>250</ele>
        <time>2018-05-07T09:20:06Z</time>
      </trkpt>
      <trkpt lat="43.52177" lon="5.54662">
        <ele>250</ele>
        <time>2018-05-07T09:20:36Z</time>
      </trkpt>
      <trkpt lat="43.52199" lon="5.54672">
        <ele>251</ele>
        <time>2018-05-07T09:20:59Z</time>
      </trkpt>
    </trkseg>
  </trk>
</gpx>